createdAt,value
2023-02-20T00:00:47.737Z,75.85
2023-02-20T00:03:16.547Z,75.72
2023-02-20T00:05:43.732Z,76.03
2023-02-20T00:08:10.796Z,76.15
2023-02-20T00:10:37.724Z,75.68
2023-02-20T00:13:04.599Z,75.80
2023-02-20T00:15:31.462Z,77.63
2023-02-20T00:17:58.515Z,75.97
2023-02-20T00:20:27.289Z,76.32
2023-02-20T00:22:55.499Z,76.57
2023-02-20T00:25:22.434Z,76.32
2023-02-20T00:27:49.376Z,76.28
2023-02-20T00:30:19.138Z,76.07
2023-02-20T00:32:47.553Z,75.68
2023-02-20T00:35:15.107Z,76.15
2023-02-20T00:37:43.484Z,76.50
2023-02-20T00:40:12.884Z,77.47
2023-02-20T00:42:39.863Z,75.70
2023-02-20T00:45:07.755Z,75.43
2023-02-20T00:47:34.634Z,76.78
2023-02-20T00:50:03.564Z,76.30
2023-02-20T00:52:30.564Z,75.63
2023-02-20T00:54:58.796Z,75.57
2023-02-20T00:57:25.662Z,76.00
2023-02-20T00:59:54.989Z,75.65
2023-02-20T01:02:21.845Z,76.18
2023-02-20T01:04:49.299Z,76.05
2023-02-20T01:07:16.452Z,75.32
2023-02-20T01:09:43.313Z,75.55
2023-02-20T01:12:11.684Z,75.43
2023-02-20T01:14:38.707Z,75.45
2023-02-20T01:17:05.600Z,75.35
2023-02-20T01:19:32.701Z,75.50
2023-02-20T01:22:00.495Z,75.68
2023-02-20T01:24:27.362Z,75.43
2023-02-20T01:26:54.310Z,75.43
2023-02-20T01:29:22.554Z,76.18
2023-02-20T01:31:50.368Z,75.15
2023-02-20T01:34:18.440Z,75.40
2023-02-20T01:36:47.313Z,75.50
2023-02-20T01:39:17.307Z,76.78
2023-02-20T01:41:44.546Z,75.57
2023-02-20T01:44:19.245Z,75.95
2023-02-20T01:46:53.302Z,75.97
2023-02-20T01:49:30.094Z,76.13
2023-02-20T01:52:02.871Z,76.07
2023-02-20T01:54:31.410Z,77.03
2023-02-20T01:57:02.801Z,76.13
2023-02-20T02:02:00.465Z,75.00
2023-02-20T02:04:28.751Z,76.20
2023-02-20T02:06:55.680Z,75.82
2023-02-20T02:09:31.370Z,76.35
2023-02-20T02:11:58.333Z,75.97
2023-02-20T02:14:25.348Z,75.63
2023-02-20T02:17:04.941Z,75.72
2023-02-20T02:19:57.068Z,76.57
2023-02-20T02:22:58.226Z,75.88
2023-02-20T02:25:37.896Z,75.25
2023-02-20T02:28:36.632Z,75.85
2023-02-20T02:31:28.573Z,75.88
2023-02-20T02:34:25.945Z,75.65
2023-02-20T02:37:03.245Z,75.85
2023-02-20T02:39:38.821Z,76.47
2023-02-20T02:42:15.094Z,76.05
2023-02-20T02:44:46.846Z,75.90
2023-02-20T02:47:19.176Z,75.50
2023-02-20T02:49:54.944Z,76.25
2023-02-20T02:52:46.546Z,77.32
2023-02-20T02:55:17.394Z,76.43
2023-02-20T02:57:44.358Z,76.28
2023-02-20T03:00:15.440Z,77.00
2023-02-20T03:02:48.826Z,75.53
2023-02-20T03:05:20.205Z,75.68
2023-02-20T03:07:53.791Z,75.32
2023-02-20T03:10:31.610Z,75.65
2023-02-20T03:13:04.717Z,76.10
2023-02-20T03:15:36.845Z,76.10
2023-02-20T03:18:12.935Z,76.00
2023-02-20T03:20:44.328Z,75.53
2023-02-20T03:23:17.254Z,76.10
2023-02-20T03:25:50.645Z,75.10
2023-02-20T03:28:22.862Z,75.85
2023-02-20T03:30:56.529Z,77.97
2023-02-20T03:33:48.340Z,76.78
2023-02-20T03:36:40.873Z,76.40
2023-02-20T03:39:34.183Z,76.63
2023-02-20T03:42:21.522Z,77.18
2023-02-20T03:44:55.844Z,78.28
2023-02-20T03:47:26.285Z,78.95
2023-02-20T03:49:55.033Z,78.60
2023-02-20T03:52:23.612Z,77.60
2023-02-20T03:54:53.190Z,77.40
2023-02-20T03:57:26.242Z,77.03
2023-02-20T03:59:58.813Z,77.47
2023-02-20T04:02:31.647Z,76.95
2023-02-20T04:05:05.978Z,76.88
2023-02-20T04:07:39.007Z,76.45
2023-02-20T04:10:12.974Z,76.65
2023-02-20T04:12:44.175Z,77.25
2023-02-20T04:17:47.203Z,78.35
2023-02-20T04:20:15.758Z,76.68
2023-02-20T04:22:54.747Z,77.32
2023-02-20T04:25:35.592Z,76.57
2023-02-20T04:28:05.701Z,77.85
2023-02-20T04:30:43.231Z,76.53
2023-02-20T04:33:11.334Z,77.63
2023-02-20T04:35:38.164Z,75.57
2023-02-20T04:38:05.276Z,76.30
2023-02-20T04:40:33.619Z,77.22
2023-02-20T04:43:00.659Z,77.55
2023-02-20T04:45:27.719Z,76.85
2023-02-20T04:47:55.707Z,77.70
2023-02-20T04:50:24.869Z,75.70
2023-02-20T04:52:51.988Z,77.15
2023-02-20T04:55:20.328Z,78.22
2023-02-20T04:57:53.605Z,75.78
2023-02-20T05:00:22.236Z,76.15
2023-02-20T05:02:49.471Z,76.32
2023-02-20T05:05:18.566Z,76.60
2023-02-20T05:07:45.658Z,76.40
2023-02-20T05:10:14.321Z,75.40
2023-02-20T05:12:41.345Z,76.82
2023-02-20T05:15:10.916Z,76.70
2023-02-20T05:17:37.929Z,75.88
2023-02-20T05:20:05.579Z,76.97
2023-02-20T05:22:32.697Z,75.53
2023-02-20T05:24:59.922Z,76.80
2023-02-20T05:27:27.586Z,75.70
2023-02-20T05:29:56.001Z,77.20
2023-02-20T05:32:27.156Z,75.80
2023-02-20T05:34:54.709Z,76.47
2023-02-20T05:37:23.234Z,75.82
2023-02-20T05:39:50.256Z,76.03
2023-02-20T05:42:17.929Z,75.55
2023-02-20T05:44:45.046Z,76.63
2023-02-20T05:47:11.927Z,75.78
2023-02-20T05:49:40.154Z,76.03
2023-02-20T05:52:15.891Z,76.38
2023-02-20T05:54:42.978Z,75.55
2023-02-20T05:57:12.586Z,76.00
2023-02-20T05:59:39.780Z,75.85
2023-02-20T06:02:06.632Z,75.82
2023-02-20T06:04:33.616Z,75.72
2023-02-20T06:07:01.912Z,75.55
2023-02-20T06:09:28.831Z,75.70
2023-02-20T06:11:57.157Z,77.20
2023-02-20T06:14:25.938Z,76.32
2023-02-20T06:16:52.878Z,76.65
2023-02-20T06:19:22.289Z,75.97
2023-02-20T06:21:50.256Z,75.68
2023-02-20T06:24:18.974Z,75.82
2023-02-20T06:26:46.169Z,77.22
2023-02-20T06:29:15.424Z,76.40
2023-02-20T06:31:42.477Z,75.60
2023-02-20T06:34:10.366Z,77.07
2023-02-20T06:36:39.652Z,76.88
2023-02-20T06:39:08.503Z,77.97
2023-02-20T06:41:36.924Z,76.10
2023-02-20T06:44:04.297Z,75.63
2023-02-20T06:46:31.374Z,76.85
2023-02-20T06:48:59.458Z,77.25
2023-02-20T06:51:28.539Z,76.60
2023-02-20T06:53:55.936Z,76.00
2023-02-20T06:56:24.784Z,76.50
2023-02-20T06:58:54.021Z,77.03
2023-02-20T07:01:23.484Z,76.18
2023-02-20T07:03:50.642Z,76.82
2023-02-20T07:06:17.995Z,76.43
2023-02-20T07:08:44.965Z,77.60
2023-02-20T07:11:12.694Z,77.40
2023-02-20T07:13:39.998Z,75.85
2023-02-20T07:16:08.668Z,75.97
2023-02-20T07:18:35.607Z,76.30
2023-02-20T07:21:02.683Z,76.50
2023-02-20T07:23:29.577Z,76.95
2023-02-20T07:25:56.598Z,76.35
2023-02-20T07:28:23.461Z,76.30
2023-02-20T07:30:50.490Z,75.82
2023-02-20T07:33:19.484Z,76.05
2023-02-20T07:35:46.563Z,76.70
2023-02-20T07:38:15.008Z,76.65
2023-02-20T07:40:42.121Z,76.63
2023-02-20T07:43:09.030Z,76.47
2023-02-20T07:45:39.378Z,75.70
2023-02-20T07:48:06.409Z,76.47
2023-02-20T07:50:34.713Z,76.93
2023-02-20T07:53:01.657Z,76.95
2023-02-20T07:55:28.586Z,76.97
2023-02-20T07:57:58.306Z,76.70
2023-02-20T08:00:26.814Z,76.10
2023-02-20T08:02:54.081Z,79.05
2023-02-20T08:05:21.130Z,76.90
2023-02-20T08:07:50.444Z,79.05
2023-02-20T08:10:20.012Z,76.13
2023-02-20T08:12:47.435Z,75.72
2023-02-20T08:15:14.456Z,75.82
2023-02-20T08:17:46.795Z,76.25
2023-02-20T08:20:16.312Z,76.15
2023-02-20T08:22:43.964Z,77.18
2023-02-20T08:25:12.346Z,76.57
2023-02-20T08:27:42.583Z,75.82
2023-02-20T08:30:11.696Z,77.63
2023-02-20T08:32:38.705Z,75.53
2023-02-20T08:35:06.654Z,75.90
2023-02-20T08:37:33.550Z,75.50
2023-02-20T08:40:00.852Z,76.03
2023-02-20T08:42:29.190Z,77.03
2023-02-20T08:44:56.147Z,76.18
2023-02-20T08:47:23.814Z,75.90
2023-02-20T08:49:50.759Z,75.72
2023-02-20T08:52:17.825Z,74.75
2023-02-20T08:54:46.128Z,75.97
2023-02-20T08:57:14.155Z,76.13
2023-02-20T08:59:42.457Z,76.40
2023-02-20T09:02:16.772Z,75.30
2023-02-20T09:04:44.587Z,77.05
2023-02-20T09:07:11.858Z,75.93
2023-02-20T09:09:38.779Z,75.72
2023-02-20T09:12:07.104Z,75.40
2023-02-20T09:14:34.285Z,76.15
2023-02-20T09:17:02.600Z,76.13
2023-02-20T09:19:29.647Z,75.43
2023-02-20T09:21:56.930Z,75.90
2023-02-20T09:24:23.865Z,76.38
2023-02-20T09:26:50.836Z,76.38
2023-02-20T09:29:17.732Z,75.05
2023-02-20T09:31:44.651Z,75.07
2023-02-20T09:34:12.898Z,75.70
2023-02-20T09:36:39.875Z,75.82
2023-02-20T09:39:06.806Z,75.32
2023-02-20T09:41:50.403Z,75.22
2023-02-20T09:44:25.782Z,75.93
2023-02-20T09:46:55.311Z,77.43
2023-02-20T09:49:27.225Z,77.05
2023-02-20T09:51:59.428Z,75.60
2023-02-20T09:54:32.372Z,74.90
2023-02-20T09:57:03.001Z,75.93
2023-02-20T09:59:36.001Z,74.68
2023-02-20T10:02:11.481Z,75.75
2023-02-20T10:04:55.565Z,78.43
2023-02-20T10:07:30.634Z,75.20
2023-02-20T10:09:59.631Z,75.15
2023-02-20T10:12:32.748Z,74.97
2023-02-20T10:15:20.858Z,76.15
2023-02-20T10:17:55.140Z,75.25
2023-02-20T10:20:37.875Z,75.10
2023-02-20T10:23:12.759Z,75.70
2023-02-20T10:25:43.745Z,75.45
2023-02-20T10:28:14.775Z,74.72
2023-02-20T10:30:46.776Z,74.88
2023-02-20T10:33:24.715Z,75.18
2023-02-20T10:35:57.577Z,75.00
2023-02-20T10:38:30.190Z,75.75
2023-02-20T10:41:05.986Z,75.55
2023-02-20T10:43:38.356Z,75.97
2023-02-20T10:46:13.111Z,74.82
2023-02-20T10:48:42.720Z,75.43
2023-02-20T10:51:15.580Z,75.13
2023-02-20T10:53:47.749Z,75.00
2023-02-20T10:56:19.510Z,75.13
2023-02-20T10:58:55.993Z,74.70
2023-02-20T11:01:25.283Z,74.95
2023-02-20T11:03:57.648Z,75.72
2023-02-20T11:06:32.800Z,74.88
2023-02-20T11:09:00.250Z,76.25
2023-02-20T11:11:35.097Z,75.15
2023-02-20T11:14:11.467Z,75.53
2023-02-20T11:16:44.087Z,75.28
2023-02-20T11:19:17.827Z,74.90
2023-02-20T11:21:49.634Z,76.00
2023-02-20T11:24:34.974Z,77.55
2023-02-20T11:27:12.148Z,78.57
2023-02-20T11:29:54.274Z,75.30
2023-02-20T11:32:28.378Z,75.75
2023-02-20T11:35:26.846Z,75.65
2023-02-20T11:38:30.069Z,74.45
2023-02-20T11:41:05.845Z,75.93
2023-02-20T11:43:35.032Z,75.03
2023-02-20T11:46:08.912Z,75.57
2023-02-20T11:48:36.296Z,74.82
2023-02-20T11:51:03.917Z,75.10
2023-02-20T11:53:33.392Z,74.80
2023-02-20T11:56:12.694Z,74.93
2023-02-20T11:58:41.198Z,74.70
2023-02-20T12:01:28.992Z,75.00
2023-02-20T12:03:59.539Z,75.10
2023-02-20T12:06:41.495Z,74.00
2023-02-20T12:09:14.850Z,75.93
2023-02-20T12:11:42.000Z,74.93
2023-02-20T12:14:12.952Z,74.95
2023-02-20T12:16:59.623Z,74.93
2023-02-20T12:19:37.778Z,74.63
2023-02-20T12:22:16.196Z,75.80
2023-02-20T12:24:57.566Z,75.00
2023-02-20T12:27:40.752Z,75.40
2023-02-20T12:30:24.775Z,74.70
2023-02-20T12:33:05.507Z,75.07
2023-02-20T12:35:34.418Z,75.37
2023-02-20T12:38:30.475Z,75.22
2023-02-20T12:41:25.568Z,74.95
2023-02-20T12:44:13.211Z,75.15
2023-02-20T12:46:50.878Z,74.07
2023-02-20T12:49:35.683Z,75.35
2023-02-20T12:52:13.643Z,75.07
2023-02-20T12:54:48.413Z,74.93
2023-02-20T12:57:33.561Z,75.28
2023-02-20T13:00:03.825Z,74.53
2023-02-20T13:02:42.430Z,74.88
2023-02-20T13:05:14.902Z,75.85
2023-02-20T13:07:47.244Z,74.47
2023-02-20T13:10:17.674Z,74.80
2023-02-20T13:12:45.947Z,74.15
2023-02-20T13:15:26.119Z,74.40
2023-02-20T13:17:58.446Z,75.10
2023-02-20T13:20:28.539Z,74.50
2023-02-20T13:23:03.691Z,74.53
2023-02-20T13:25:44.753Z,75.57
2023-02-20T13:28:35.585Z,74.97
2023-02-20T13:31:11.923Z,75.03
2023-02-20T13:33:40.156Z,74.70
2023-02-20T13:36:19.164Z,76.15
2023-02-20T13:39:23.249Z,74.57
2023-02-20T13:42:22.598Z,74.50
2023-02-20T13:44:52.544Z,74.75
2023-02-20T13:47:38.342Z,74.78
2023-02-20T13:50:28.660Z,74.38
2023-02-20T13:52:57.894Z,74.07
2023-02-20T13:55:27.504Z,75.00
2023-02-20T13:57:56.706Z,74.57
2023-02-20T14:00:35.074Z,75.07
2023-02-20T14:03:09.900Z,74.38
2023-02-20T14:05:36.804Z,74.75
2023-02-20T14:08:03.699Z,74.43
2023-02-20T14:10:32.388Z,75.65
2023-02-20T14:13:11.671Z,75.53
2023-02-20T14:15:48.920Z,74.47
2023-02-20T14:18:18.323Z,74.35
2023-02-20T14:20:45.636Z,75.18
2023-02-20T14:23:24.538Z,75.38
2023-02-20T14:26:00.880Z,74.57
2023-02-20T14:28:33.613Z,74.80
2023-02-20T14:31:21.410Z,75.25
2023-02-20T14:33:49.511Z,75.18
2023-02-20T14:36:45.400Z,74.43
2023-02-20T14:39:24.174Z,75.65
2023-02-20T14:41:53.527Z,74.72
2023-02-20T14:44:20.538Z,74.85
2023-02-20T14:46:53.774Z,74.55
2023-02-20T14:49:26.837Z,75.05
2023-02-20T14:52:04.774Z,74.55
2023-02-20T14:54:31.649Z,74.90
2023-02-20T14:57:00.912Z,74.32
2023-02-20T14:59:30.794Z,74.55
2023-02-20T15:02:02.114Z,75.32
2023-02-20T15:04:29.925Z,74.25
2023-02-20T15:07:04.042Z,74.68
2023-02-20T15:09:42.174Z,74.72
2023-02-20T15:12:20.025Z,73.97
2023-02-20T15:14:55.979Z,74.63
2023-02-20T15:17:26.149Z,75.05
2023-02-20T15:19:53.696Z,74.88
2023-02-20T15:22:32.869Z,74.93
2023-02-20T15:25:26.982Z,74.65
2023-02-20T15:28:05.132Z,74.85
2023-02-20T15:30:32.243Z,74.78
2023-02-20T15:33:00.675Z,74.45
2023-02-20T15:35:31.566Z,74.60
2023-02-20T15:38:02.047Z,74.30
2023-02-20T15:40:31.217Z,74.40
2023-02-20T15:42:58.502Z,75.15
2023-02-20T15:45:26.781Z,74.03
2023-02-20T15:47:53.981Z,75.90
2023-02-20T15:50:22.302Z,74.65
2023-02-20T15:52:49.904Z,75.00
2023-02-20T15:55:18.801Z,74.72
2023-02-20T15:57:46.804Z,74.38
2023-02-20T16:00:21.334Z,74.47
2023-02-20T16:02:50.751Z,74.28
2023-02-20T16:05:17.783Z,74.35
2023-02-20T16:07:46.182Z,74.28
2023-02-20T16:10:15.181Z,74.88
2023-02-20T16:12:42.489Z,75.78
2023-02-20T16:15:15.263Z,74.38
2023-02-20T16:17:42.261Z,75.00
2023-02-20T16:20:14.996Z,74.72
2023-02-20T16:22:41.886Z,74.50
2023-02-20T16:25:11.502Z,75.13
2023-02-20T16:27:38.819Z,75.25
2023-02-20T16:30:07.699Z,74.50
2023-02-20T16:32:34.788Z,74.18
2023-02-20T16:35:01.933Z,74.28
2023-02-20T16:37:29.227Z,74.20
2023-02-20T16:39:56.125Z,75.00
2023-02-20T16:42:28.678Z,74.30
2023-02-20T16:44:58.661Z,75.78
2023-02-20T16:47:28.044Z,75.90
2023-02-20T16:49:57.747Z,75.55
2023-02-20T16:52:27.898Z,74.78
2023-02-20T16:54:56.398Z,75.28
2023-02-20T16:57:25.935Z,74.70
2023-02-20T16:59:55.774Z,74.57
2023-02-20T17:02:24.857Z,74.57
2023-02-20T17:04:51.782Z,75.13
2023-02-20T17:07:19.598Z,74.75
2023-02-20T17:09:46.922Z,74.35
2023-02-20T17:12:16.193Z,74.60
2023-02-20T17:14:44.909Z,75.32
2023-02-20T17:17:12.232Z,75.43
2023-02-20T17:19:39.499Z,76.45
2023-02-20T17:22:06.844Z,75.07
2023-02-20T17:24:34.161Z,75.22
2023-02-20T17:27:01.677Z,75.47
2023-02-20T17:29:28.617Z,75.32
2023-02-20T17:31:56.980Z,75.22
2023-02-20T17:34:23.916Z,75.13
2023-02-20T17:36:51.286Z,75.63
2023-02-20T17:39:20.864Z,75.95
2023-02-20T17:41:48.727Z,75.72
2023-02-20T17:44:17.822Z,76.03
2023-02-20T17:46:44.776Z,75.75
2023-02-20T17:49:13.154Z,75.32
2023-02-20T17:51:40.035Z,76.15
2023-02-20T17:54:06.979Z,75.82
2023-02-20T17:56:33.891Z,76.53
2023-02-20T17:59:01.148Z,76.45
2023-02-20T18:01:27.997Z,76.95
2023-02-20T18:03:55.374Z,75.57
2023-02-20T18:06:23.687Z,76.18
2023-02-20T18:08:50.903Z,76.05
2023-02-20T18:11:18.482Z,75.63
2023-02-20T18:13:45.630Z,76.05
2023-02-20T18:16:13.400Z,76.93
2023-02-20T18:18:41.578Z,76.65
2023-02-20T18:21:16.238Z,76.47
2023-02-20T18:23:44.725Z,78.53
2023-02-20T18:26:11.958Z,76.32
2023-02-20T18:28:39.122Z,76.97
2023-02-20T18:31:06.502Z,77.35
2023-02-20T18:33:34.361Z,76.53
2023-02-20T18:36:07.996Z,76.60
2023-02-20T18:38:47.925Z,76.90
2023-02-20T18:41:14.890Z,76.60
2023-02-20T18:43:44.257Z,78.25
2023-02-20T18:46:11.618Z,76.65
2023-02-20T18:48:39.827Z,77.63
2023-02-20T18:51:06.743Z,76.75
2023-02-20T18:53:33.619Z,77.00
2023-02-20T18:56:02.113Z,77.80
2023-02-20T18:58:30.269Z,76.75
2023-02-20T19:00:57.779Z,77.32
2023-02-20T19:03:24.815Z,76.72
2023-02-20T19:05:51.804Z,76.70
2023-02-20T19:08:18.763Z,76.65
2023-02-20T19:10:45.658Z,77.78
2023-02-20T19:13:13.866Z,76.53
2023-02-20T19:15:40.842Z,78.03
2023-02-20T19:18:07.698Z,76.40
2023-02-20T19:20:35.463Z,76.95
2023-02-20T19:23:04.440Z,76.45
2023-02-20T19:25:31.570Z,76.75
2023-02-20T19:27:58.486Z,78.80
2023-02-20T19:30:26.790Z,78.80
2023-02-20T19:32:53.709Z,78.75
2023-02-20T19:35:21.213Z,76.90
2023-02-20T19:37:48.159Z,77.07
2023-02-20T19:40:15.161Z,76.63
2023-02-20T19:42:42.260Z,78.72
2023-02-20T19:45:12.092Z,77.20
2023-02-20T19:47:40.456Z,76.43
2023-02-20T19:50:07.615Z,77.93
2023-02-20T19:52:34.523Z,76.95
2023-02-20T19:55:01.421Z,76.70
2023-02-20T19:57:28.382Z,77.10
2023-02-20T19:59:55.210Z,76.82
2023-02-20T20:02:25.205Z,77.00
2023-02-20T20:04:53.806Z,77.35
2023-02-20T20:07:20.680Z,77.35
2023-02-20T20:09:48.386Z,76.65
2023-02-20T20:12:33.934Z,76.72
2023-02-20T20:15:00.791Z,76.47
2023-02-20T20:17:27.709Z,76.32
2023-02-20T20:19:59.908Z,78.18
2023-02-20T20:22:28.240Z,77.68
2023-02-20T20:24:55.160Z,76.63
2023-02-20T20:27:23.568Z,76.25
2023-02-20T20:29:51.201Z,77.38
2023-02-20T20:32:19.996Z,76.72
2023-02-20T20:34:52.575Z,76.80
2023-02-20T20:37:23.867Z,76.13
2023-02-20T20:39:51.614Z,76.72
2023-02-20T20:42:23.529Z,76.78
2023-02-20T20:44:51.073Z,76.35
2023-02-20T20:47:18.072Z,77.35
2023-02-20T20:49:45.037Z,78.13
2023-02-20T20:52:12.250Z,76.47
2023-02-20T20:54:40.483Z,76.35
2023-02-20T20:57:10.094Z,76.20
2023-02-20T20:59:37.898Z,76.68
2023-02-20T21:02:04.936Z,76.05
2023-02-20T21:04:31.758Z,76.45
2023-02-20T21:06:58.634Z,75.80
2023-02-20T21:09:25.586Z,76.00
2023-02-20T21:11:53.901Z,77.07
2023-02-20T21:14:20.880Z,76.43
2023-02-20T21:16:47.789Z,76.35
2023-02-20T21:19:14.628Z,76.43
2023-02-20T21:21:41.686Z,76.25
2023-02-20T21:24:09.009Z,76.20
2023-02-20T21:26:38.035Z,75.82
2023-02-20T21:29:06.748Z,76.30
2023-02-20T21:31:34.371Z,76.90
2023-02-20T21:34:01.618Z,77.93
2023-02-20T21:36:28.968Z,75.35
2023-02-20T21:38:55.979Z,76.43
2023-02-20T21:41:43.255Z,77.28
2023-02-20T21:44:29.296Z,76.00
2023-02-20T21:46:58.279Z,79.00
2023-02-20T21:49:25.922Z,75.88
2023-02-20T21:51:52.838Z,76.05
2023-02-20T21:54:22.043Z,76.22
2023-02-20T21:56:48.915Z,76.07
2023-02-20T21:59:17.184Z,76.72
2023-02-20T22:01:44.457Z,76.38
2023-02-20T22:04:13.328Z,76.22
2023-02-20T22:06:40.586Z,75.70
2023-02-20T22:09:26.849Z,76.68
2023-02-20T22:12:12.353Z,75.63
2023-02-20T22:14:59.456Z,75.95
2023-02-20T22:17:44.821Z,75.47
2023-02-20T22:20:31.293Z,76.53
2023-02-20T22:23:16.455Z,75.50
2023-02-20T22:26:01.756Z,76.15
2023-02-20T22:28:47.041Z,75.55
2023-02-20T22:31:34.017Z,75.85
2023-02-20T22:34:19.407Z,76.20
2023-02-20T22:37:07.252Z,76.60
2023-02-20T22:39:52.474Z,76.13
2023-02-20T22:42:37.842Z,75.43
2023-02-20T22:45:24.074Z,75.97
2023-02-20T22:48:11.214Z,75.82
2023-02-20T22:50:56.372Z,76.43
2023-02-20T22:53:41.693Z,75.63
2023-02-20T22:56:34.761Z,75.70
2023-02-20T22:59:20.076Z,75.30
2023-02-20T23:02:05.662Z,76.57
2023-02-20T23:04:52.472Z,75.85
2023-02-20T23:07:37.680Z,76.35
2023-02-20T23:10:23.869Z,75.78
2023-02-20T23:13:09.283Z,75.78
2023-02-20T23:15:54.654Z,75.97
2023-02-20T23:18:39.925Z,76.43
2023-02-20T23:21:26.524Z,75.85
2023-02-20T23:24:11.915Z,78.35
2023-02-20T23:26:58.361Z,76.18
2023-02-20T23:29:44.076Z,77.88
2023-02-20T23:32:29.494Z,77.68
2023-02-20T23:35:14.764Z,77.05
2023-02-20T23:38:01.532Z,76.45
2023-02-20T23:40:46.730Z,76.03
2023-02-20T23:43:32.023Z,75.93
2023-02-20T23:46:17.284Z,76.95
2023-02-20T23:49:02.634Z,76.78
2023-02-20T23:51:50.315Z,77.43
2023-02-20T23:54:37.359Z,77.65
2023-02-20T23:57:23.194Z,76.95
